createdAt,value
2017-10-27T00:00:16.016Z,11.10
2017-10-27T00:02:44.869Z,11.00
2017-10-27T00:05:12.970Z,11.00
2017-10-27T00:07:41.074Z,11.10
2017-10-27T00:10:09.169Z,11.10
2017-10-27T00:12:37.262Z,11.10
2017-10-27T00:15:06.136Z,11.10
2017-10-27T00:17:39.254Z,11.10
2017-10-27T00:20:07.390Z,11.10
2017-10-27T00:22:35.507Z,11.10
2017-10-27T00:25:03.619Z,11.10
2017-10-27T00:27:31.721Z,11.10
2017-10-27T00:29:59.820Z,11.20
2017-10-27T00:32:27.906Z,11.20
2017-10-27T00:34:57.909Z,11.20
2017-10-27T00:37:26.014Z,11.10
2017-10-27T00:39:54.866Z,11.10
2017-10-27T00:42:22.966Z,11.10
2017-10-27T00:44:51.278Z,11.20
2017-10-27T00:47:19.358Z,11.20
2017-10-27T00:49:48.217Z,11.40
2017-10-27T00:52:17.074Z,11.40
2017-10-27T00:55:04.369Z,11.40
2017-10-27T00:57:43.650Z,11.40
2017-10-27T01:00:13.909Z,11.40
2017-10-27T01:02:55.003Z,11.30
2017-10-27T01:05:23.303Z,11.30
2017-10-27T01:07:53.306Z,11.30
2017-10-27T01:10:26.286Z,11.20
2017-10-27T01:12:54.373Z,11.10
2017-10-27T01:15:23.260Z,11.00
2017-10-27T01:17:52.112Z,10.90
2017-10-27T01:20:26.975Z,10.90
2017-10-27T01:22:55.818Z,10.90
2017-10-27T01:25:24.793Z,10.80
2017-10-27T01:27:52.882Z,10.80
2017-10-27T01:30:20.983Z,10.80
2017-10-27T01:32:49.078Z,10.80
2017-10-27T01:35:17.176Z,10.70
2017-10-27T01:37:45.272Z,10.70
2017-10-27T01:40:14.128Z,10.70
2017-10-27T01:42:42.218Z,10.70
2017-10-27T01:45:10.301Z,10.70
2017-10-27T01:47:38.402Z,10.60
2017-10-27T01:50:06.694Z,10.50
2017-10-27T01:52:35.727Z,10.50
2017-10-27T01:55:03.806Z,10.40
2017-10-27T01:57:32.682Z,10.50
2017-10-27T02:00:01.543Z,10.60
2017-10-27T02:02:30.427Z,10.50
2017-10-27T02:05:05.006Z,10.50
2017-10-27T02:07:33.095Z,10.50
2017-10-27T02:10:02.758Z,10.40
2017-10-27T02:12:30.853Z,10.40
2017-10-27T02:14:59.697Z,10.40
2017-10-27T02:17:27.801Z,10.40
2017-10-27T02:19:55.923Z,10.40
2017-10-27T02:22:24.773Z,10.30
2017-10-27T02:24:52.872Z,10.20
2017-10-27T02:27:20.988Z,10.20
2017-10-27T02:29:49.066Z,10.20
2017-10-27T02:32:17.928Z,10.30
2017-10-27T02:34:49.029Z,10.30
2017-10-27T02:37:17.412Z,10.40
2017-10-27T02:39:45.483Z,10.50
2017-10-27T02:42:26.068Z,10.40
2017-10-27T02:44:54.165Z,10.40
2017-10-27T02:47:22.253Z,10.40
2017-10-27T02:49:50.867Z,10.30
2017-10-27T02:52:18.965Z,10.20
2017-10-27T02:54:47.060Z,10.10
2017-10-27T02:57:15.166Z,10.00
2017-10-27T02:59:43.259Z,10.00
2017-10-27T03:02:11.356Z,10.00
2017-10-27T03:04:39.455Z,10.00
2017-10-27T03:07:08.386Z,10.00
2017-10-27T03:09:36.469Z,10.00
2017-10-27T03:12:23.507Z,10.00
2017-10-27T03:14:51.607Z,10.00
2017-10-27T03:17:19.697Z,10.00
2017-10-27T03:19:47.801Z,10.00
2017-10-27T03:22:15.901Z,10.20
2017-10-27T03:24:44.749Z,10.20
2017-10-27T03:27:12.849Z,10.20
2017-10-27T03:29:40.954Z,10.20
2017-10-27T03:32:09.054Z,10.30
2017-10-27T03:34:37.160Z,10.30
2017-10-27T03:37:05.250Z,10.30
2017-10-27T03:39:33.341Z,10.20
2017-10-27T03:42:01.428Z,10.20
2017-10-27T03:44:29.518Z,10.20
2017-10-27T03:46:58.410Z,10.20
2017-10-27T03:49:26.510Z,10.20
2017-10-27T03:51:54.615Z,10.10
2017-10-27T03:54:28.961Z,10.20
2017-10-27T03:56:57.067Z,10.20
2017-10-27T03:59:27.853Z,10.10
2017-10-27T04:01:55.947Z,10.10
2017-10-27T04:04:24.813Z,10.10
2017-10-27T04:06:52.914Z,10.00
2017-10-27T04:09:21.055Z,10.20
2017-10-27T04:11:49.152Z,10.30
2017-10-27T04:14:17.274Z,10.30
2017-10-27T04:16:45.845Z,10.20
2017-10-27T04:19:13.954Z,10.40
2017-10-27T04:21:43.323Z,10.50
2017-10-27T04:24:11.479Z,10.50
2017-10-27T04:26:51.920Z,10.40
2017-10-27T04:29:20.007Z,10.20
2017-10-27T04:31:49.852Z,10.10
2017-10-27T04:34:17.949Z,10.00
2017-10-27T04:36:49.989Z,10.00
2017-10-27T04:39:18.254Z,9.90
2017-10-27T04:41:46.354Z,9.90
2017-10-27T04:44:14.467Z,9.90
2017-10-27T04:46:43.531Z,9.90
2017-10-27T04:49:12.814Z,9.90
2017-10-27T04:51:40.875Z,9.80
2017-10-27T04:54:09.018Z,9.80
2017-10-27T04:56:37.112Z,9.80
2017-10-27T04:59:05.217Z,9.70
2017-10-27T05:01:33.332Z,9.70
2017-10-27T05:04:01.404Z,9.70
2017-10-27T05:06:30.221Z,9.80
2017-10-27T05:08:58.302Z,9.80
2017-10-27T05:11:27.875Z,9.80
2017-10-27T05:13:55.967Z,9.80
2017-10-27T05:16:29.802Z,9.70
2017-10-27T05:19:03.639Z,9.80
2017-10-27T05:21:37.412Z,9.80
2017-10-27T05:24:11.886Z,9.70
2017-10-27T05:26:40.023Z,9.70
2017-10-27T05:29:08.102Z,9.70
2017-10-27T05:31:36.253Z,9.70
2017-10-27T05:34:04.948Z,9.70
2017-10-27T05:36:33.020Z,9.70
2017-10-27T05:39:01.132Z,9.70
2017-10-27T05:41:29.993Z,9.70
2017-10-27T05:43:58.852Z,9.60
2017-10-27T05:46:26.967Z,9.60
2017-10-27T05:48:55.136Z,9.70
2017-10-27T05:51:23.223Z,9.70
2017-10-27T05:53:51.373Z,9.70
2017-10-27T05:56:19.865Z,9.70
2017-10-27T05:58:47.964Z,9.70
2017-10-27T06:01:16.140Z,9.60
2017-10-27T06:03:44.210Z,9.70
2017-10-27T06:06:12.325Z,9.70
2017-10-27T06:08:40.410Z,9.60
2017-10-27T06:11:09.292Z,9.70
2017-10-27T06:13:38.171Z,9.70
2017-10-27T06:16:06.370Z,9.60
2017-10-27T06:18:34.458Z,9.60
2017-10-27T06:21:04.451Z,9.60
2017-10-27T06:23:32.542Z,9.60
2017-10-27T06:26:00.639Z,9.70
2017-10-27T06:28:28.730Z,9.70
2017-10-27T06:30:57.635Z,9.60
2017-10-27T06:33:25.753Z,9.60
2017-10-27T06:35:54.763Z,9.70
2017-10-27T06:38:22.891Z,9.70
2017-10-27T06:40:51.792Z,9.70
2017-10-27T06:43:20.648Z,9.80
2017-10-27T06:45:50.415Z,9.80
2017-10-27T06:48:18.496Z,9.80
2017-10-27T06:50:46.591Z,9.80
2017-10-27T06:53:14.694Z,9.90
2017-10-27T06:55:42.792Z,10.00
2017-10-27T06:58:10.879Z,10.00
2017-10-27T07:00:39.002Z,10.00
2017-10-27T07:03:07.069Z,10.00
2017-10-27T07:05:35.171Z,10.10
2017-10-27T07:08:03.292Z,10.10
2017-10-27T07:10:31.431Z,10.30
2017-10-27T07:12:59.993Z,10.40
2017-10-27T07:15:28.135Z,10.40
2017-10-27T07:17:56.253Z,10.40
2017-10-27T07:20:31.176Z,10.60
2017-10-27T07:22:59.332Z,10.60
2017-10-27T07:25:27.455Z,10.60
2017-10-27T07:27:57.354Z,10.60
2017-10-27T07:30:27.513Z,10.60
2017-10-27T07:32:58.248Z,10.60
2017-10-27T07:35:30.050Z,10.70
2017-10-27T07:37:59.747Z,10.70
2017-10-27T07:40:28.021Z,10.90
2017-10-27T07:42:56.504Z,10.90
2017-10-27T07:45:24.662Z,10.90
2017-10-27T07:47:55.543Z,10.90
2017-10-27T07:50:23.645Z,10.90
2017-10-27T07:52:52.573Z,11.00
2017-10-27T07:55:20.670Z,11.00
2017-10-27T07:57:48.789Z,11.10
2017-10-27T08:00:16.928Z,11.30
2017-10-27T08:02:45.144Z,11.40
2017-10-27T08:05:14.010Z,11.40
2017-10-27T08:07:43.007Z,11.40
2017-10-27T08:10:11.127Z,11.40
2017-10-27T08:12:39.225Z,11.40
2017-10-27T08:15:07.345Z,11.30
2017-10-27T08:17:35.434Z,11.10
2017-10-27T08:20:03.583Z,11.00
2017-10-27T08:22:32.444Z,10.90
2017-10-27T08:25:00.563Z,10.90
2017-10-27T08:27:28.738Z,11.00
2017-10-27T08:29:56.843Z,11.20
2017-10-27T08:32:24.939Z,11.40
2017-10-27T08:34:53.047Z,11.60
2017-10-27T08:37:21.793Z,11.70
2017-10-27T08:39:49.853Z,11.90
2017-10-27T08:42:26.593Z,12.00
2017-10-27T08:44:54.701Z,12.00
2017-10-27T08:47:22.846Z,12.10
2017-10-27T08:49:50.947Z,12.10
2017-10-27T08:52:19.054Z,12.20
2017-10-27T08:54:47.159Z,12.20
2017-10-27T08:57:15.271Z,12.20
2017-10-27T08:59:43.418Z,12.30
2017-10-27T09:02:11.542Z,12.30
2017-10-27T09:04:39.670Z,12.30
2017-10-27T09:07:07.774Z,12.30
2017-10-27T09:09:36.682Z,12.30
2017-10-27T09:12:04.786Z,12.30
2017-10-27T09:14:32.888Z,12.30
2017-10-27T09:17:00.985Z,12.20
2017-10-27T09:19:29.104Z,12.10
2017-10-27T09:21:57.232Z,12.00
2017-10-27T09:24:26.141Z,11.90
2017-10-27T09:26:54.257Z,11.90
2017-10-27T09:29:22.353Z,11.90
2017-10-27T09:31:50.473Z,11.90
2017-10-27T09:34:19.379Z,12.00
2017-10-27T09:36:47.491Z,12.00
2017-10-27T09:39:15.586Z,12.10
2017-10-27T09:41:43.692Z,12.20
2017-10-27T09:44:14.885Z,12.40
2017-10-27T09:46:43.020Z,12.70
2017-10-27T09:49:11.195Z,12.70
2017-10-27T09:51:39.286Z,12.60
2017-10-27T09:54:07.413Z,12.80
2017-10-27T09:56:35.516Z,12.90
2017-10-27T09:59:03.623Z,12.80
2017-10-27T10:01:32.593Z,12.80
2017-10-27T10:04:00.775Z,12.70
2017-10-27T10:06:28.886Z,12.80
2017-10-27T10:08:57.749Z,13.00
2017-10-27T10:11:25.854Z,13.00
2017-10-27T10:13:53.969Z,13.10
2017-10-27T10:16:22.078Z,13.20
2017-10-27T10:18:50.177Z,13.40
2017-10-27T10:21:18.282Z,13.50
2017-10-27T10:23:46.369Z,13.40
2017-10-27T10:26:15.460Z,13.40
2017-10-27T10:28:46.276Z,13.30
2017-10-27T10:31:14.399Z,13.10
2017-10-27T10:33:42.703Z,12.90
2017-10-27T10:36:13.474Z,12.80
2017-10-27T10:38:43.626Z,12.90
2017-10-27T10:41:12.506Z,12.60
2017-10-27T10:43:41.373Z,12.50
2017-10-27T10:46:09.968Z,12.50
2017-10-27T10:48:38.057Z,12.50
2017-10-27T10:51:06.167Z,12.60
2017-10-27T10:53:34.260Z,12.70
2017-10-27T10:56:02.367Z,12.80
2017-10-27T10:58:30.446Z,12.90
2017-10-27T11:00:58.593Z,13.00
2017-10-27T11:03:26.737Z,13.00
2017-10-27T11:05:55.648Z,13.20
2017-10-27T11:08:23.906Z,13.20
2017-10-27T11:10:52.003Z,13.00
2017-10-27T11:13:20.103Z,13.00
2017-10-27T11:15:48.967Z,13.30
2017-10-27T11:18:17.682Z,13.30
2017-10-27T11:20:45.787Z,13.30
2017-10-27T11:23:15.567Z,13.40
2017-10-27T11:25:43.659Z,13.40
2017-10-27T11:28:11.763Z,13.40
2017-10-27T11:30:39.893Z,13.50
2017-10-27T11:33:07.991Z,13.50
2017-10-27T11:35:36.101Z,13.40
2017-10-27T11:38:04.252Z,13.50
2017-10-27T11:40:32.345Z,13.60
2017-10-27T11:43:00.487Z,13.60
2017-10-27T11:45:28.597Z,13.60
2017-10-27T11:47:57.082Z,13.50
2017-10-27T11:50:25.196Z,13.60
2017-10-27T11:52:53.306Z,13.80
2017-10-27T11:55:21.450Z,13.90
2017-10-27T11:57:49.562Z,13.80
2017-10-27T12:00:17.696Z,13.90
2017-10-27T12:02:46.471Z,14.00
2017-10-27T12:05:14.643Z,14.00
2017-10-27T12:07:42.824Z,13.90
2017-10-27T12:10:10.930Z,13.90
2017-10-27T12:12:39.039Z,14.00
2017-10-27T12:15:07.967Z,13.80
2017-10-27T12:17:36.070Z,13.80
2017-10-27T12:20:04.235Z,13.80
2017-10-27T12:22:33.275Z,13.70
2017-10-27T12:25:01.394Z,13.60
2017-10-27T12:27:29.514Z,13.50
2017-10-27T12:29:57.642Z,13.50
2017-10-27T12:32:25.726Z,13.40
2017-10-27T12:34:53.825Z,13.30
2017-10-27T12:37:22.051Z,13.20
2017-10-27T12:39:51.753Z,13.00
2017-10-27T12:42:20.638Z,12.90
2017-10-27T12:44:49.490Z,12.90
2017-10-27T12:47:18.362Z,12.90
2017-10-27T12:49:46.483Z,12.90
2017-10-27T12:52:14.585Z,12.90
2017-10-27T12:54:42.697Z,12.90
2017-10-27T12:57:10.802Z,12.80
2017-10-27T12:59:39.684Z,12.90
2017-10-27T13:02:08.532Z,13.00
2017-10-27T13:04:36.781Z,12.90
2017-10-27T13:07:04.858Z,13.00
2017-10-27T13:09:32.945Z,13.10
2017-10-27T13:12:01.923Z,13.10
2017-10-27T13:14:30.026Z,13.10
2017-10-27T13:16:58.134Z,13.10
2017-10-27T13:19:26.254Z,13.10
2017-10-27T13:21:54.366Z,13.20
2017-10-27T13:24:23.282Z,13.20
2017-10-27T13:26:51.377Z,13.20
2017-10-27T13:29:19.493Z,13.30
2017-10-27T13:31:48.653Z,13.30
2017-10-27T13:34:16.783Z,13.40
2017-10-27T13:36:44.902Z,13.40
2017-10-27T13:39:13.828Z,13.40
2017-10-27T13:41:42.270Z,13.30
2017-10-27T13:44:10.395Z,13.40
2017-10-27T13:46:39.286Z,13.40
2017-10-27T13:49:07.403Z,13.40
2017-10-27T13:51:35.493Z,13.40
2017-10-27T13:54:04.377Z,13.30
2017-10-27T13:56:32.470Z,13.30
2017-10-27T13:59:00.643Z,13.30
2017-10-27T14:01:29.493Z,13.20
2017-10-27T14:04:03.566Z,13.20
2017-10-27T14:06:31.754Z,13.10
2017-10-27T14:09:00.865Z,13.10
2017-10-27T14:11:29.034Z,13.10
2017-10-27T14:13:57.181Z,13.10
2017-10-27T14:16:26.078Z,13.10
2017-10-27T14:18:54.558Z,13.00
2017-10-27T14:21:22.666Z,13.10
2017-10-27T14:23:51.582Z,13.10
2017-10-27T14:26:19.783Z,13.10
2017-10-27T14:28:47.868Z,13.10
2017-10-27T14:31:15.974Z,13.10
2017-10-27T14:33:44.111Z,13.10
2017-10-27T14:36:12.215Z,13.00
2017-10-27T14:38:46.096Z,12.90
2017-10-27T14:41:14.216Z,12.90
2017-10-27T14:43:42.338Z,12.80
2017-10-27T14:46:10.444Z,12.70
2017-10-27T14:48:38.568Z,12.70
2017-10-27T14:51:06.654Z,12.60
2017-10-27T14:53:34.879Z,12.60
2017-10-27T14:56:02.966Z,12.50
2017-10-27T14:58:31.059Z,12.50
2017-10-27T15:01:01.234Z,12.50
2017-10-27T15:03:29.401Z,12.50
2017-10-27T15:05:57.529Z,12.50
2017-10-27T15:08:25.621Z,12.50
2017-10-27T15:10:53.741Z,12.40
2017-10-27T15:13:22.130Z,12.30
2017-10-27T15:15:50.262Z,12.30
2017-10-27T15:18:20.407Z,12.20
2017-10-27T15:20:48.546Z,12.20
2017-10-27T15:23:16.665Z,12.10
2017-10-27T15:25:45.562Z,12.10
2017-10-27T15:28:14.514Z,12.00
2017-10-27T15:30:43.381Z,12.10
2017-10-27T15:33:13.175Z,12.00
2017-10-27T15:35:41.339Z,12.00
2017-10-27T15:38:10.298Z,11.90
2017-10-27T15:40:38.420Z,11.90
2017-10-27T15:43:06.582Z,11.90
2017-10-27T15:45:34.696Z,11.90
2017-10-27T15:48:03.786Z,11.80
2017-10-27T15:50:34.844Z,11.80
2017-10-27T15:53:03.552Z,11.70
2017-10-27T15:55:31.784Z,11.70
2017-10-27T15:57:59.902Z,11.70
2017-10-27T16:00:28.232Z,11.60
2017-10-27T16:02:56.329Z,11.60
2017-10-27T16:05:29.983Z,11.50
2017-10-27T16:07:58.084Z,11.40
2017-10-27T16:10:26.201Z,11.40
2017-10-27T16:13:00.191Z,11.40
2017-10-27T16:15:29.113Z,11.40
2017-10-27T16:17:57.432Z,11.40
2017-10-27T16:20:26.320Z,11.50
2017-10-27T16:22:54.401Z,11.50
2017-10-27T16:25:22.509Z,11.50
2017-10-27T16:27:50.614Z,11.40
2017-10-27T16:30:18.721Z,11.50
2017-10-27T16:32:48.448Z,11.50
2017-10-27T16:35:17.420Z,11.50
2017-10-27T16:37:45.548Z,11.50
2017-10-27T16:40:14.419Z,11.60
2017-10-27T16:42:42.562Z,11.60
2017-10-27T16:45:10.800Z,11.70
2017-10-27T16:47:38.900Z,11.70
2017-10-27T16:50:07.777Z,11.70
2017-10-27T16:52:37.645Z,11.70
2017-10-27T16:55:05.777Z,11.70
2017-10-27T16:57:33.878Z,11.70
2017-10-27T17:00:02.083Z,11.70
2017-10-27T17:02:33.755Z,11.80
2017-10-27T17:08:11.756Z,11.80
2017-10-27T17:10:39.894Z,11.80
2017-10-27T17:13:08.258Z,11.80
2017-10-27T17:15:36.339Z,11.70
2017-10-27T17:18:06.218Z,11.50
2017-10-27T17:20:34.351Z,11.50
2017-10-27T17:23:03.073Z,11.50
2017-10-27T17:25:31.185Z,11.40
2017-10-27T17:27:59.281Z,11.50
2017-10-27T17:30:28.150Z,11.50
2017-10-27T17:32:56.252Z,11.50
2017-10-27T17:35:24.377Z,11.50
2017-10-27T17:37:53.293Z,11.50
2017-10-27T17:40:21.396Z,11.50
2017-10-27T17:42:49.492Z,11.50
2017-10-27T17:45:18.418Z,11.40
2017-10-27T17:47:47.979Z,11.20
2017-10-27T17:50:16.102Z,11.20
2017-10-27T17:52:44.187Z,11.10
2017-10-27T17:55:12.639Z,11.10
2017-10-27T17:57:40.711Z,11.10
2017-10-27T18:00:12.365Z,11.10
2017-10-27T18:02:40.567Z,11.00
2017-10-27T18:05:08.702Z,10.90
2017-10-27T18:07:36.816Z,10.80
2017-10-27T18:10:04.938Z,10.80
2017-10-27T18:12:33.049Z,10.70
2017-10-27T18:15:01.142Z,10.70
2017-10-27T18:17:30.025Z,10.60
2017-10-27T18:19:58.121Z,10.60
2017-10-27T18:22:26.222Z,10.60
2017-10-27T18:25:02.390Z,10.60
2017-10-27T18:27:30.529Z,10.60
2017-10-27T18:29:58.776Z,10.60
2017-10-27T18:32:31.813Z,10.60
2017-10-27T18:34:59.947Z,10.60
2017-10-27T18:37:28.054Z,10.60
2017-10-27T18:40:01.858Z,10.60
2017-10-27T18:42:30.742Z,10.40
2017-10-27T18:44:59.590Z,10.40
2017-10-27T18:47:28.586Z,10.40
2017-10-27T18:49:57.444Z,10.40
2017-10-27T18:52:26.352Z,10.40
2017-10-27T18:54:54.601Z,10.40
2017-10-27T18:57:23.497Z,10.30
2017-10-27T18:59:51.654Z,10.30
2017-10-27T19:02:19.762Z,10.30
2017-10-27T19:04:47.882Z,10.30
2017-10-27T19:07:34.870Z,10.30
2017-10-27T19:10:02.961Z,10.30
2017-10-27T19:12:31.119Z,10.40
2017-10-27T19:15:04.842Z,10.40
2017-10-27T19:17:33.773Z,10.40
2017-10-27T19:20:01.874Z,10.40
2017-10-27T19:22:29.989Z,10.40
2017-10-27T19:24:58.109Z,10.40
2017-10-27T19:27:26.190Z,10.40
2017-10-27T19:29:54.311Z,10.50
2017-10-27T19:32:22.432Z,10.50
2017-10-27T19:34:50.536Z,10.60
2017-10-27T19:37:18.645Z,10.60
2017-10-27T19:39:46.747Z,10.60
2017-10-27T19:42:15.225Z,10.60
2017-10-27T19:44:43.354Z,10.60
2017-10-27T19:47:16.463Z,10.70
2017-10-27T19:49:44.561Z,10.70
2017-10-27T19:52:13.428Z,10.70
2017-10-27T19:54:43.503Z,10.70
2017-10-27T19:57:11.597Z,10.70
2017-10-27T19:59:40.969Z,10.80
2017-10-27T20:02:09.082Z,10.70
2017-10-27T20:04:37.182Z,10.80
2017-10-27T20:07:05.281Z,10.80
2017-10-27T20:09:33.428Z,10.80
2017-10-27T20:12:03.906Z,10.80
2017-10-27T20:14:48.197Z,10.90
2017-10-27T20:17:16.333Z,10.90
2017-10-27T20:19:44.438Z,10.90
2017-10-27T20:22:12.582Z,10.90
2017-10-27T20:24:45.683Z,10.70
2017-10-27T20:27:13.845Z,10.60
2017-10-27T20:29:41.975Z,10.60
2017-10-27T20:32:14.450Z,10.70
2017-10-27T20:34:43.578Z,10.70
2017-10-27T20:37:14.367Z,10.80
2017-10-27T20:39:42.453Z,10.80
2017-10-27T20:42:29.574Z,10.80
2017-10-27T20:44:57.658Z,10.80
2017-10-27T20:47:25.951Z,10.80
2017-10-27T20:49:54.934Z,10.80
2017-10-27T20:52:23.822Z,10.70
2017-10-27T20:54:53.022Z,10.70
2017-10-27T20:57:21.106Z,10.60
2017-10-27T20:59:50.278Z,10.60
2017-10-27T21:02:19.145Z,10.70
2017-10-27T21:04:53.108Z,10.70
2017-10-27T21:07:21.415Z,10.60
2017-10-27T21:09:50.085Z,10.60
2017-10-27T21:12:18.238Z,10.70
2017-10-27T21:14:50.619Z,10.80
2017-10-27T21:17:18.735Z,10.80
2017-10-27T21:19:47.817Z,10.80
2017-10-27T21:22:15.905Z,10.80
2017-10-27T21:24:44.770Z,10.70
2017-10-27T21:27:12.866Z,10.70
2017-10-27T21:29:40.978Z,10.70
2017-10-27T21:32:09.082Z,10.80
2017-10-27T21:34:37.168Z,10.70
2017-10-27T21:37:05.267Z,10.70
2017-10-27T21:39:33.382Z,10.60
2017-10-27T21:42:03.262Z,10.60
2017-10-27T21:44:31.362Z,10.50
2017-10-27T21:46:59.441Z,10.50
2017-10-27T21:49:27.530Z,10.60
2017-10-27T21:51:55.641Z,10.70
2017-10-27T21:54:24.537Z,10.90
2017-10-27T21:56:52.627Z,10.80
2017-10-27T21:59:20.722Z,10.90
2017-10-27T22:01:48.803Z,10.90
2017-10-27T22:04:16.893Z,11.00
2017-10-27T22:06:45.001Z,11.00
2017-10-27T22:09:13.880Z,10.90
2017-10-27T22:11:42.014Z,10.80
2017-10-27T22:14:10.116Z,10.70
2017-10-27T22:16:38.214Z,10.60
2017-10-27T22:19:08.307Z,10.50
2017-10-27T22:21:36.402Z,10.40
2017-10-27T22:24:05.277Z,10.30
2017-10-27T22:26:33.357Z,10.30
2017-10-27T22:29:01.467Z,10.20
2017-10-27T22:31:30.352Z,10.10
2017-10-27T22:33:58.443Z,10.00
2017-10-27T22:36:26.533Z,10.00
2017-10-27T22:38:54.622Z,10.00
2017-10-27T22:41:22.722Z,9.90
2017-10-27T22:43:50.867Z,9.90
2017-10-27T22:46:18.957Z,9.80
2017-10-27T22:48:47.050Z,9.80
2017-10-27T22:51:15.914Z,9.70
2017-10-27T22:53:43.989Z,9.70
2017-10-27T22:56:12.845Z,9.70
2017-10-27T22:58:40.930Z,9.70
2017-10-27T23:01:09.016Z,9.70
2017-10-27T23:03:37.102Z,9.70
2017-10-27T23:06:05.193Z,9.80
2017-10-27T23:08:34.066Z,9.80
2017-10-27T23:11:02.914Z,9.90
2017-10-27T23:13:31.003Z,9.80
2017-10-27T23:15:59.090Z,9.80
2017-10-27T23:18:36.953Z,9.80
2017-10-27T23:21:05.026Z,9.80
2017-10-27T23:23:33.130Z,9.80
2017-10-27T23:26:01.262Z,9.80
2017-10-27T23:28:29.353Z,9.80
2017-10-27T23:30:57.434Z,9.80
2017-10-27T23:33:25.512Z,9.80
2017-10-27T23:35:55.524Z,9.70
2017-10-27T23:38:23.601Z,9.70
2017-10-27T23:40:51.694Z,9.70
2017-10-27T23:43:19.791Z,9.80
2017-10-27T23:45:47.897Z,9.80
2017-10-27T23:48:17.953Z,9.80
2017-10-27T23:50:46.013Z,9.80
2017-10-27T23:53:14.097Z,9.70
2017-10-27T23:55:42.966Z,9.70
2017-10-27T23:58:11.033Z,9.70
